Herve, Belgium
Current Conditions -  °F | °C
As of 1:20 PM on Sunday 25 Jan 2015 (Local Time) from EBLG Reporting Station
Light Rain Light Rain  
Wind Chill: 29°   Ceiling: 900
Heat Index: 36°   Visibility: 2mi
Dew Point: 32°   Wind: 9mph
Humidity: 87%   Direction: 240°WSW
Pressure: 30.39"   Gusts: NA
Location:  50.64°N, 5.79°E
Report Text: EBLG 251220Z 24008KT 3300 -RA BR FEW005 BKN009 02/00 Q1029 R23/120195 TEMPO BKN005
Loading
Personal Weather Stations






























Interactive Weather Map New forecast layout! Learn more

10-Day Weather Forecast

Advertisements
Track Severe Weather on mobile